Time;durP1;ratioP1;P1;durP2;ratioP2;P2;SDS_P1;SDS_P2;PMS_P1;PMS_P2;Temp;Humidity;BMP_temperature;BMP_pressure;BME280_temperature;BME280_humidity;BME280_pressure;Samples;Min_cycle;Max_cycle;Signal;HPM_P1;HPM_P2
2023/08/16 00:00:20;;;;;;;2.78;2.28;;;;;;;19.95;100.00;100953.59;5233182;28;20734;-75
2023/08/16 00:02:50;;;;;;;4.30;2.50;;;;;;;19.87;100.00;100958.59;5226487;28;20025;-75
2023/08/16 00:05:21;;;;;;;3.20;2.50;;;;;;;20.05;100.00;100952.06;5228981;28;20124;-75
2023/08/16 00:07:51;;;;;;;11.57;3.75;;;;;;;19.82;100.00;100955.38;5222537;28;20020;-75
2023/08/16 00:10:21;;;;;;;6.97;4.20;;;;;;;19.64;100.00;100956.63;5224835;28;20123;-75
2023/08/16 00:12:51;;;;;;;5.75;3.88;;;;;;;19.57;100.00;100947.38;5227226;28;20446;-75
2023/08/16 00:15:22;;;;;;;5.88;3.80;;;;;;;19.54;100.00;100955.53;5223123;28;20203;-76
2023/08/16 00:17:53;;;;;;;7.38;4.10;;;;;;;19.58;100.00;100951.72;5222902;28;20082;-75
2023/08/16 00:20:29;;;;;;;5.85;4.00;;;;;;;19.57;100.00;100960.63;5222169;28;20632;-75
2023/08/16 00:22:59;;;;;;;4.43;3.50;;;;;;;19.72;100.00;100959.63;5222199;28;20542;-76
2023/08/16 00:25:30;;;;;;;5.90;3.70;;;;;;;19.69;100.00;100958.97;5225576;28;20168;-76
2023/08/16 00:28:00;;;;;;;6.23;3.53;;;;;;;19.73;100.00;100963.97;5225739;28;20055;-76
2023/08/16 00:30:31;;;;;;;3.72;2.50;;;;;;;19.54;100.00;100963.50;5222462;28;20280;-75
2023/08/16 00:33:01;;;;;;;3.30;2.17;;;;;;;19.50;100.00;100969.97;5223908;28;20044;-76
2023/08/16 00:35:31;;;;;;;7.60;2.67;;;;;;;19.46;100.00;100979.03;5222822;28;20033;-75
2023/08/16 00:38:02;;;;;;;3.22;2.47;;;;;;;19.54;100.00;100971.47;5222240;28;20147;-75
2023/08/16 00:40:32;;;;;;;3.78;2.75;;;;;;;19.50;100.00;100979.69;5222395;28;20102;-76
2023/08/16 00:43:03;;;;;;;5.40;3.10;;;;;;;19.45;100.00;100982.66;5223536;28;20037;-74
2023/08/16 00:45:33;;;;;;;3.70;2.70;;;;;;;19.43;100.00;100973.94;5225567;28;20021;-75
2023/08/16 00:48:04;;;;;;;3.17;2.50;;;;;;;19.56;100.00;100974.00;5213150;28;20134;-74
2023/08/16 00:50:35;;;;;;;6.65;2.47;;;;;;;19.41;100.00;100975.84;5237661;22;20008;-73
2023/08/16 00:53:06;;;;;;;3.35;2.30;;;;;;;19.32;100.00;100981.78;5212858;28;20033;-73
2023/08/16 00:55:36;;;;;;;2.90;2.05;;;;;;;19.21;100.00;100968.34;5215840;28;20037;-73
2023/08/16 00:58:07;;;;;;;3.92;1.77;;;;;;;19.29;100.00;100971.34;5216590;28;20115;-71
2023/08/16 01:00:38;;;;;;;2.42;1.80;;;;;;;19.16;100.00;100973.09;5215445;28;20574;-73
2023/08/16 01:03:09;;;;;;;3.70;1.92;;;;;;;19.09;100.00;100966.44;5200070;28;20531;-73
2023/08/16 01:05:39;;;;;;;2.67;1.95;;;;;;;19.16;100.00;100967.81;5197273;28;20030;-73
2023/08/16 01:08:09;;;;;;;2.90;2.28;;;;;;;19.10;100.00;100969.97;5198253;28;20104;-72
2023/08/16 01:11:03;;;;;;;3.92;2.35;;;;;;;19.16;100.00;100970.47;5203071;28;20086;-73
2023/08/16 01:14:08;;;;;;;4.22;2.47;;;;;;;19.25;100.00;100964.53;5197568;28;20501;-73
2023/08/16 01:16:39;;;;;;;3.13;2.47;;;;;;;19.12;100.00;100958.28;5190441;28;20681;-73
2023/08/16 01:19:13;;;;;;;2.72;2.00;;;;;;;19.18;100.00;100957.97;5198304;28;20071;-71
2023/08/16 01:21:53;;;;;;;3.22;2.30;;;;;;;19.06;100.00;100966.66;5199408;28;20469;-73
2023/08/16 01:24:33;;;;;;;2.50;2.30;;;;;;;19.00;100.00;100968.84;5199839;28;20028;-73
2023/08/16 01:27:05;;;;;;;3.00;2.50;;;;;;;19.05;100.00;100975.56;5196420;28;20029;-73
2023/08/16 01:29:35;;;;;;;3.40;2.90;;;;;;;19.16;100.00;100973.09;5196281;28;20131;-73
2023/08/16 01:32:06;;;;;;;3.50;2.53;;;;;;;19.17;100.00;100961.56;5200260;28;20116;-73
2023/08/16 01:34:36;;;;;;;4.28;2.70;;;;;;;19.23;100.00;100969.09;5201498;28;20050;-73
2023/08/16 01:37:06;;;;;;;3.47;2.55;;;;;;;19.07;100.00;100973.66;5196517;28;20842;-73
2023/08/16 01:39:38;;;;;;;3.92;2.95;;;;;;;18.93;100.00;100973.66;5198096;28;20021;-73
2023/08/16 01:42:13;;;;;;;4.70;2.70;;;;;;;18.93;100.00;100976.31;5198397;28;20022;-73
2023/08/16 01:44:45;;;;;;;8.93;3.03;;;;;;;18.84;100.00;100978.69;5198835;28;20033;-73
2023/08/16 01:47:16;;;;;;;7.10;3.63;;;;;;;18.78;100.00;100965.84;5199926;28;20502;-73
2023/08/16 01:49:47;;;;;;;7.95;3.60;;;;;;;18.67;100.00;100973.59;5199497;28;20052;-73
2023/08/16 01:52:17;;;;;;;4.57;3.40;;;;;;;18.67;100.00;100978.06;5199473;28;20501;-73
2023/08/16 01:54:47;;;;;;;5.40;3.33;;;;;;;18.69;100.00;100981.47;5198356;28;20060;-71
2023/08/16 01:57:18;;;;;;;6.07;3.67;;;;;;;18.63;100.00;100980.06;5201343;28;20079;-73
2023/08/16 01:59:48;;;;;;;5.82;3.22;;;;;;;18.62;100.00;100981.00;5194447;28;20018;-71
2023/08/16 02:02:18;;;;;;;6.30;3.28;;;;;;;18.59;100.00;100978.53;5201081;28;20410;-72
2023/08/16 02:04:48;;;;;;;4.25;3.00;;;;;;;18.76;100.00;100987.13;5199620;28;20030;-71
2023/08/16 02:07:19;;;;;;;4.00;2.88;;;;;;;18.80;100.00;100980.69;5201485;28;20029;-72
2023/08/16 02:09:49;;;;;;;4.50;2.85;;;;;;;18.47;100.00;100978.44;5199210;28;20029;-72
2023/08/16 02:12:19;;;;;;;4.97;3.00;;;;;;;18.47;100.00;100976.66;5201171;28;20411;-72
2023/08/16 02:14:50;;;;;;;5.55;2.90;;;;;;;18.30;100.00;100978.59;5197012;28;20025;-73
2023/08/16 02:17:20;;;;;;;2.55;1.92;;;;;;;18.35;100.00;100980.03;5199124;28;20091;-73
2023/08/16 02:19:50;;;;;;;5.13;2.30;;;;;;;18.50;100.00;100983.56;5193871;28;20196;-73
2023/08/16 02:22:20;;;;;;;2.95;1.60;;;;;;;18.45;100.00;100990.91;5196679;28;20053;-73
2023/08/16 02:24:51;;;;;;;2.28;1.90;;;;;;;18.49;100.00;100989.81;5192958;28;20025;-73
2023/08/16 02:27:22;;;;;;;2.95;2.00;;;;;;;18.52;100.00;100992.25;5183919;28;20030;-73
2023/08/16 02:29:52;;;;;;;4.07;2.33;;;;;;;18.31;100.00;100990.94;5197952;28;20046;-73
2023/08/16 02:32:22;;;;;;;2.78;2.25;;;;;;;18.37;100.00;100995.84;5201389;28;20147;-73
2023/08/16 02:34:53;;;;;;;4.57;2.42;;;;;;;18.27;100.00;100992.88;5199565;28;20033;-73
2023/08/16 02:37:23;;;;;;;3.63;2.55;;;;;;;18.24;100.00;100997.47;5195966;28;20035;-72
2023/08/16 02:39:53;;;;;;;6.93;2.65;;;;;;;18.15;100.00;101003.34;5199541;28;20380;-73
2023/08/16 02:42:24;;;;;;;5.22;2.50;;;;;;;18.15;100.00;100998.88;5201207;28;20552;-73
2023/08/16 02:44:54;;;;;;;6.13;2.92;;;;;;;18.33;100.00;100989.88;5195709;28;20029;-73
2023/08/16 02:47:24;;;;;;;3.72;2.60;;;;;;;18.28;100.00;100983.13;5199868;28;20064;-73
2023/08/16 02:49:54;;;;;;;4.38;2.78;;;;;;;18.37;100.00;100979.94;5197477;28;20098;-73
2023/08/16 02:52:25;;;;;;;3.20;2.50;;;;;;;18.37;100.00;100987.88;5200461;28;20028;-74
2023/08/16 02:54:55;;;;;;;5.32;2.90;;;;;;;18.41;100.00;100992.91;5200333;28;20071;-72
2023/08/16 02:57:25;;;;;;;5.35;3.45;;;;;;;18.47;100.00;100989.00;5206844;28;20505;-73
2023/08/16 02:59:56;;;;;;;8.75;2.95;;;;;;;18.47;100.00;100984.59;5204752;28;20049;-73
2023/08/16 03:02:27;;;;;;;11.43;3.40;;;;;;;18.60;100.00;100989.97;5205254;28;20017;-72
2023/08/16 03:04:58;;;;;;;8.15;3.97;;;;;;;18.59;100.00;100989.13;5203350;28;20502;-73
2023/08/16 03:07:28;;;;;;;9.40;4.03;;;;;;;18.70;100.00;101007.00;5207190;28;20029;-73
2023/08/16 03:09:58;;;;;;;8.23;4.28;;;;;;;18.63;100.00;101001.22;5204177;28;20557;-73
2023/08/16 03:12:28;;;;;;;6.20;3.80;;;;;;;18.70;100.00;101004.34;5206748;28;20025;-73
2023/08/16 03:14:59;;;;;;;9.50;4.25;;;;;;;18.71;100.00;101004.25;5204592;28;20046;-73
2023/08/16 03:17:29;;;;;;;19.02;5.15;;;;;;;18.60;100.00;101001.44;5204649;28;20119;-73
2023/08/16 03:19:59;;;;;;;13.88;5.45;;;;;;;18.56;100.00;101005.22;5199934;28;20017;-71
2023/08/16 03:22:30;;;;;;;10.02;5.40;;;;;;;18.59;100.00;101004.16;5204183;28;20036;-73
2023/08/16 03:25:00;;;;;;;11.50;5.82;;;;;;;18.80;100.00;101003.69;5203313;28;20022;-73
2023/08/16 03:27:30;;;;;;;13.50;5.30;;;;;;;18.75;100.00;101001.31;5203798;28;20500;-73
2023/08/16 03:30:01;;;;;;;12.95;4.82;;;;;;;18.83;100.00;101003.50;5201779;28;20052;-73
2023/08/16 03:32:31;;;;;;;10.32;5.60;;;;;;;18.77;100.00;101007.38;5205365;28;20052;-73
2023/08/16 03:35:02;;;;;;;12.35;5.13;;;;;;;18.58;100.00;101013.91;5203549;28;20033;-73
2023/08/16 03:37:33;;;;;;;8.60;4.88;;;;;;;18.55;100.00;101013.25;5204722;28;20029;-73
2023/08/16 03:40:06;;;;;;;14.43;5.43;;;;;;;18.48;100.00;101011.94;5200687;28;20029;-74
2023/08/16 03:42:36;;;;;;;11.48;5.15;;;;;;;18.40;100.00;101008.88;5200427;28;20025;-73
2023/08/16 03:45:06;;;;;;;10.60;5.00;;;;;;;18.33;100.00;101012.84;5203122;28;20099;-72
2023/08/16 03:47:37;;;;;;;7.82;3.92;;;;;;;18.32;100.00;101017.28;5203007;28;20061;-73
2023/08/16 03:50:08;;;;;;;7.50;4.38;;;;;;;18.22;100.00;101031.13;5200928;28;20645;-73
2023/08/16 03:52:38;;;;;;;8.38;4.60;;;;;;;18.21;100.00;101037.34;5202318;28;20445;-73
2023/08/16 03:55:08;;;;;;;6.18;4.28;;;;;;;18.23;100.00;101035.47;5202428;28;20021;-73
2023/08/16 03:57:38;;;;;;;5.63;4.15;;;;;;;18.34;100.00;101030.44;5202012;28;20057;-73
2023/08/16 04:00:11;;;;;;;7.38;4.32;;;;;;;18.20;100.00;101033.00;5204569;28;20380;-73
2023/08/16 04:02:41;;;;;;;5.90;3.95;;;;;;;18.29;100.00;101033.34;5204312;28;20407;-73
2023/08/16 04:05:12;;;;;;;6.47;4.55;;;;;;;18.36;100.00;101039.13;5206040;28;20028;-73
2023/08/16 04:07:43;;;;;;;8.15;5.10;;;;;;;18.29;100.00;101045.72;5203449;28;20044;-73
2023/08/16 04:10:13;;;;;;;6.50;4.53;;;;;;;18.45;100.00;101051.78;5204895;28;20487;-73
2023/08/16 04:12:43;;;;;;;7.35;4.28;;;;;;;18.44;100.00;101055.38;5205840;28;20462;-73
2023/08/16 04:15:14;;;;;;;10.27;5.03;;;;;;;18.52;100.00;101058.44;5203475;28;20376;-73
2023/08/16 04:17:44;;;;;;;7.18;4.88;;;;;;;18.43;100.00;101057.19;5202927;28;20030;-74
2023/08/16 04:20:14;;;;;;;6.65;4.75;;;;;;;18.53;100.00;101057.50;5206009;28;20304;-74
2023/08/16 04:22:45;;;;;;;8.18;4.75;;;;;;;18.40;100.00;101064.47;5208769;28;20499;-73
2023/08/16 04:25:16;;;;;;;6.97;4.05;;;;;;;18.42;100.00;101062.56;5206757;28;20498;-73
2023/08/16 04:27:46;;;;;;;5.57;4.15;;;;;;;18.47;100.00;101064.00;5207789;28;20108;-73
2023/08/16 04:30:16;;;;;;;5.18;3.90;;;;;;;18.52;100.00;101075.16;5205446;28;20047;-73
2023/08/16 04:32:47;;;;;;;4.57;3.72;;;;;;;18.57;100.00;101070.47;5204146;28;20502;-73
2023/08/16 04:35:17;;;;;;;6.10;4.00;;;;;;;18.51;100.00;101075.28;5214945;28;20486;-73
2023/08/16 04:37:47;;;;;;;6.43;4.15;;;;;;;18.48;100.00;101078.94;5205171;28;20045;-71
2023/08/16 04:40:18;;;;;;;5.72;4.10;;;;;;;18.62;100.00;101083.41;5205027;28;20104;-74
2023/08/16 04:42:48;;;;;;;6.50;4.60;;;;;;;18.67;100.00;101082.19;5205124;28;20120;-72
2023/08/16 04:45:18;;;;;;;6.15;4.75;;;;;;;18.83;100.00;101083.81;5202432;28;20017;-73
2023/08/16 04:47:49;;;;;;;6.68;4.82;;;;;;;18.98;100.00;101087.31;5200376;28;20441;-73
2023/08/16 04:50:19;;;;;;;8.55;5.20;;;;;;;18.90;100.00;101087.78;5201463;28;20021;-73
2023/08/16 04:52:50;;;;;;;8.88;5.10;;;;;;;19.08;100.00;101084.00;5200662;28;20025;-73
2023/08/16 04:55:20;;;;;;;8.45;5.78;;;;;;;19.44;100.00;101086.19;5203395;28;20051;-73
2023/08/16 04:57:50;;;;;;;8.80;6.15;;;;;;;19.63;100.00;101087.53;5205908;28;20067;-74
2023/08/16 05:00:21;;;;;;;9.25;5.18;;;;;;;19.77;100.00;101092.81;5202494;28;20025;-74
2023/08/16 05:02:51;;;;;;;7.18;5.35;;;;;;;20.01;100.00;101100.97;5199989;28;20025;-73
2023/08/16 05:05:22;;;;;;;7.97;5.07;;;;;;;20.34;100.00;101098.75;5201716;28;20032;-73
2023/08/16 05:07:52;;;;;;;8.75;5.45;;;;;;;20.54;100.00;101103.56;5202868;28;20175;-73
2023/08/16 05:10:23;;;;;;;6.93;5.40;;;;;;;20.50;100.00;101100.25;5203804;28;20284;-74
2023/08/16 05:12:53;;;;;;;6.53;4.85;;;;;;;20.50;100.00;101091.47;5202892;28;20021;-73
2023/08/16 05:15:23;;;;;;;6.72;4.55;;;;;;;20.59;100.00;101101.44;5204455;28;20037;-74
2023/08/16 05:17:54;;;;;;;7.28;4.45;;;;;;;20.61;100.00;101099.56;5199597;28;20167;-73
2023/08/16 05:20:24;;;;;;;10.93;4.55;;;;;;;20.68;100.00;101110.50;5212570;28;20609;-74
2023/08/16 05:22:54;;;;;;;6.97;4.05;;;;;;;20.77;100.00;101107.22;5199389;28;20459;-74
2023/08/16 05:25:24;;;;;;;6.55;4.20;;;;;;;20.85;100.00;101098.72;5200926;28;20037;-74
2023/08/16 05:27:58;;;;;;;6.70;3.92;;;;;;;21.02;100.00;101106.38;5195746;28;20049;-74
2023/08/16 05:30:29;;;;;;;4.60;3.40;;;;;;;20.91;100.00;101098.31;5191722;28;20022;-73
2023/08/16 05:32:59;;;;;;;5.97;3.90;;;;;;;21.00;100.00;101102.97;5194794;28;20039;-74
2023/08/16 05:35:33;;;;;;;6.68;3.75;;;;;;;20.96;100.00;101115.66;5203284;28;20021;-74
2023/08/16 05:38:05;;;;;;;6.78;3.20;;;;;;;21.71;100.00;101117.38;5196999;28;20723;-72
2023/08/16 05:40:35;;;;;;;8.65;3.10;;;;;;;23.69;100.00;101122.22;5202823;28;20017;-74
2023/08/16 05:43:05;;;;;;;4.32;2.80;;;;;;;24.56;95.80;101114.91;5201132;28;20032;-73
2023/08/16 05:45:36;;;;;;;5.60;2.70;;;;;;;23.90;97.83;101127.69;5195425;28;20029;-74
2023/08/16 05:48:06;;;;;;;4.97;2.35;;;;;;;23.34;100.00;101128.72;5198360;28;20156;-73
2023/08/16 05:50:36;;;;;;;5.30;2.43;;;;;;;22.69;100.00;101131.13;5200714;28;20044;-73
2023/08/16 05:53:07;;;;;;;3.80;2.25;;;;;;;22.03;100.00;101134.47;5201638;28;20340;-73
2023/08/16 05:55:37;;;;;;;3.50;2.50;;;;;;;21.77;100.00;101135.53;5202412;28;20223;-73
2023/08/16 05:58:08;;;;;;;4.53;2.75;;;;;;;21.50;100.00;101138.34;5201138;28;20044;-74
2023/08/16 06:00:38;;;;;;;6.43;2.53;;;;;;;21.28;100.00;101147.94;5203469;28;20029;-73
2023/08/16 06:03:08;;;;;;;6.88;2.95;;;;;;;21.26;100.00;101142.72;5201780;28;20025;-73
2023/08/16 06:05:39;;;;;;;5.97;3.00;;;;;;;21.30;100.00;101146.03;5203318;28;20538;-73
2023/08/16 06:08:09;;;;;;;5.53;2.80;;;;;;;21.54;100.00;101149.63;5202054;28;20036;-74
2023/08/16 06:10:39;;;;;;;7.47;2.92;;;;;;;21.75;100.00;101130.31;5199459;28;20410;-74
2023/08/16 06:13:10;;;;;;;5.88;2.70;;;;;;;21.87;100.00;101134.75;5201124;28;20025;-74
2023/08/16 06:15:40;;;;;;;4.85;2.50;;;;;;;22.13;100.00;101125.72;5202229;28;20029;-73
2023/08/16 06:18:10;;;;;;;5.45;2.30;;;;;;;22.06;100.00;101131.59;5195871;28;20115;-72
2023/08/16 06:20:41;;;;;;;4.00;2.40;;;;;;;22.30;100.00;101133.28;5202978;28;20030;-73
2023/08/16 06:23:11;;;;;;;4.93;2.00;;;;;;;22.41;100.00;101137.84;5198797;28;20049;-72
2023/08/16 06:25:41;;;;;;;3.80;2.30;;;;;;;22.23;100.00;101141.84;5199865;28;20433;-74
2023/08/16 06:28:12;;;;;;;7.18;2.30;;;;;;;22.40;100.00;101136.13;5202791;28;20100;-73
2023/08/16 06:30:42;;;;;;;4.50;2.20;;;;;;;22.54;100.00;101139.44;5201839;28;20673;-73
2023/08/16 06:33:13;;;;;;;3.72;1.90;;;;;;;23.72;97.35;101137.97;5203343;28;20475;-74
2023/08/16 06:35:43;;;;;;;3.35;1.70;;;;;;;24.26;90.29;101146.03;5205326;28;20033;-74
2023/08/16 06:38:14;;;;;;;3.90;1.67;;;;;;;23.82;91.11;101152.34;5204707;28;20277;-74
2023/08/16 06:40:44;;;;;;;6.18;1.98;;;;;;;23.46;94.30;101149.06;5204589;28;20028;-73
2023/08/16 06:43:14;;;;;;;8.13;1.90;;;;;;;23.50;90.57;101156.72;5203816;28;20047;-73
2023/08/16 06:45:45;;;;;;;2.95;1.70;;;;;;;23.92;92.38;101149.75;5201721;28;20283;-73
2023/08/16 06:48:15;;;;;;;4.75;1.90;;;;;;;24.59;87.38;101148.59;5200554;28;20466;-73
2023/08/16 06:50:52;;;;;;;4.57;1.75;;;;;;;24.42;87.58;101149.13;5204552;28;20033;-73
2023/08/16 06:53:23;;;;;;;3.88;1.60;;;;;;;24.45;87.15;101157.72;5203004;28;20017;-74
2023/08/16 06:55:55;;;;;;;3.55;1.63;;;;;;;23.34;93.24;101150.88;5204151;28;20083;-74
2023/08/16 06:58:25;;;;;;;5.13;1.95;;;;;;;23.61;90.61;101156.72;5201742;28;20105;-74
2023/08/16 07:00:56;;;;;;;7.18;2.30;;;;;;;23.73;89.71;101146.84;5204269;28;20096;-74
2023/08/16 07:03:26;;;;;;;3.67;2.00;;;;;;;23.76;89.58;101136.78;5203664;28;20017;-74
2023/08/16 07:05:57;;;;;;;3.45;1.80;;;;;;;24.90;86.85;101137.81;5203162;28;20532;-74
2023/08/16 07:08:27;;;;;;;4.68;1.98;;;;;;;24.36;87.10;101142.44;5202452;28;20421;-74
2023/08/16 07:10:57;;;;;;;4.90;1.77;;;;;;;25.46;86.12;101139.13;5202463;28;20044;-74
2023/08/16 07:13:28;;;;;;;4.47;1.58;;;;;;;28.50;75.12;101132.13;5204299;28;20115;-74
2023/08/16 07:15:58;;;;;;;4.55;1.90;;;;;;;28.64;71.41;101138.81;5201402;28;20037;-74
2023/08/16 07:18:28;;;;;;;4.97;1.77;;;;;;;29.42;69.64;101136.84;5203745;28;20025;-75
2023/08/16 07:20:59;;;;;;;4.57;1.70;;;;;;;31.74;63.98;101122.44;5202127;28;20601;-75
2023/08/16 07:23:29;;;;;;;5.07;1.65;;;;;;;32.40;62.00;101136.25;5204949;28;20286;-75
2023/08/16 07:25:59;;;;;;;5.60;1.58;;;;;;;31.94;62.62;101130.97;5202993;28;20025;-75
2023/08/16 07:28:30;;;;;;;6.23;1.83;;;;;;;30.27;66.62;101129.41;5204076;28;20501;-75
2023/08/16 07:31:00;;;;;;;2.97;1.50;;;;;;;27.30;73.33;101141.47;5200735;28;20295;-74
2023/08/16 07:33:30;;;;;;;4.17;2.30;;;;;;;27.14;75.41;101138.56;5203696;28;20710;-74
2023/08/16 07:36:01;;;;;;;6.20;2.25;;;;;;;26.50;78.29;101146.56;5202024;28;20321;-74
2023/08/16 07:38:35;;;;;;;5.95;2.30;;;;;;;25.13;84.67;101148.22;5203962;28;20306;-74
2023/08/16 07:41:05;;;;;;;7.43;2.55;;;;;;;24.43;88.26;101157.03;5201075;28;20396;-74
2023/08/16 07:43:35;;;;;;;4.45;2.35;;;;;;;24.02;90.35;101164.09;5203581;28;20048;-74
2023/08/16 07:46:05;;;;;;;6.00;2.60;;;;;;;24.03;89.80;101160.44;5201300;28;20059;-74
2023/08/16 07:48:36;;;;;;;3.63;2.17;;;;;;;23.63;94.93;101157.44;5201342;28;20626;-74
2023/08/16 07:51:06;;;;;;;4.40;2.17;;;;;;;23.65;95.88;101158.16;5199638;28;20391;-74
2023/08/16 07:53:36;;;;;;;5.97;2.40;;;;;;;23.91;92.25;101159.59;5199192;28;20823;-73
2023/08/16 07:56:06;;;;;;;5.18;2.17;;;;;;;24.07;93.17;101157.34;5199355;28;20754;-74
2023/08/16 07:58:37;;;;;;;5.25;2.30;;;;;;;25.06;89.46;101164.94;5202836;28;20489;-74
2023/08/16 08:01:07;;;;;;;5.55;2.33;;;;;;;26.54;82.80;101164.06;5200964;28;20060;-73
2023/08/16 08:03:38;;;;;;;3.03;1.80;;;;;;;26.96;81.06;101161.75;5197815;28;20989;-74
2023/08/16 08:06:09;;;;;;;5.60;2.80;;;;;;;26.68;81.16;101166.31;5203008;28;20382;-73
2023/08/16 08:08:39;;;;;;;4.65;2.25;;;;;;;27.39;78.21;101159.41;5200976;28;20284;-74
2023/08/16 08:11:10;;;;;;;4.37;2.30;;;;;;;27.68;75.94;101160.13;5200640;28;20032;-74
2023/08/16 08:13:40;;;;;;;4.47;2.05;;;;;;;29.40;72.64;101166.63;5201433;28;20354;-75
2023/08/16 08:16:10;;;;;;;4.00;2.10;;;;;;;28.50;74.95;101172.50;5197592;28;20036;-73
2023/08/16 08:18:40;;;;;;;4.70;2.20;;;;;;;29.32;73.93;101166.59;5197369;28;20322;-74
2023/08/16 08:21:11;;;;;;;6.32;2.33;;;;;;;30.62;69.04;101169.63;5201490;28;20299;-74
2023/08/16 08:23:41;;;;;;;8.05;2.70;;;;;;;30.17;69.78;101170.03;5201157;28;20022;-75
2023/08/16 08:26:12;;;;;;;5.80;2.33;;;;;;;29.97;70.25;101183.94;5198595;28;20052;-74
2023/08/16 08:28:43;;;;;;;4.50;2.20;;;;;;;29.26;72.35;101190.63;5201136;28;20025;-74
2023/08/16 08:31:13;;;;;;;5.82;2.45;;;;;;;28.11;74.55;101194.44;5197527;28;20423;-74
2023/08/16 08:33:45;;;;;;;5.30;2.17;;;;;;;27.39;77.63;101188.06;5199761;28;20235;-74
2023/08/16 08:36:15;;;;;;;5.07;2.20;;;;;;;26.86;79.57;101192.28;5199421;28;20036;-74
2023/08/16 08:38:46;;;;;;;4.35;1.80;;;;;;;26.45;82.00;101199.72;5201700;28;20029;-74
2023/08/16 08:41:18;;;;;;;5.30;2.40;;;;;;;26.06;81.99;101200.66;5200042;28;20033;-74
2023/08/16 08:43:50;;;;;;;5.53;2.30;;;;;;;25.57;84.19;101203.28;5197382;28;20031;-74
2023/08/16 08:46:21;;;;;;;4.32;1.80;;;;;;;24.99;86.88;101214.63;5197635;28;20029;-73
2023/08/16 08:48:52;;;;;;;5.68;1.73;;;;;;;25.05;87.17;101208.75;5196695;28;20029;-74
2023/08/16 08:51:24;;;;;;;4.60;1.90;;;;;;;24.77;87.62;101206.72;5198072;28;20106;-74
2023/08/16 08:53:54;;;;;;;4.78;1.60;;;;;;;24.96;88.84;101207.69;5194205;28;20025;-73
2023/08/16 08:56:26;;;;;;;5.10;1.83;;;;;;;25.21;85.46;101211.81;5201450;28;20498;-73
2023/08/16 08:59:00;;;;;;;4.47;1.83;;;;;;;25.24;85.57;101203.53;5199095;28;20790;-73
2023/08/16 09:01:31;;;;;;;6.45;2.20;;;;;;;25.11;86.18;101202.88;5201771;28;20021;-73
2023/08/16 09:04:03;;;;;;;3.08;1.60;;;;;;;25.14;85.89;101214.16;5199024;28;20033;-74
2023/08/16 09:06:34;;;;;;;6.85;2.20;;;;;;;24.84;86.50;101213.25;5203270;28;20028;-74
2023/08/16 09:09:04;;;;;;;4.53;2.10;;;;;;;24.95;86.18;101211.34;5204106;28;20033;-74
2023/08/16 09:11:35;;;;;;;4.78;2.08;;;;;;;24.91;85.99;101209.06;5200859;28;20021;-73
2023/08/16 09:14:06;;;;;;;6.55;2.13;;;;;;;25.06;85.57;101205.06;5201587;28;20107;-73
2023/08/16 09:16:36;;;;;;;4.93;2.00;;;;;;;25.74;83.31;101194.59;5203171;28;20394;-74
2023/08/16 09:19:14;;;;;;;4.25;2.00;;;;;;;26.23;81.63;101195.50;5202314;28;20033;-73
2023/08/16 09:21:44;;;;;;;3.17;1.50;;;;;;;26.77;79.54;101195.81;5202469;28;20129;-72
2023/08/16 09:24:14;;;;;;;5.82;2.17;;;;;;;26.21;80.52;101194.75;5204688;28;20301;-73
2023/08/16 09:26:45;;;;;;;4.72;1.95;;;;;;;25.82;83.16;101206.34;5202929;28;20078;-74
2023/08/16 09:29:17;;;;;;;6.30;2.30;;;;;;;25.58;83.11;101202.28;5201212;28;20479;-73
2023/08/16 09:31:48;;;;;;;4.65;2.30;;;;;;;25.77;83.47;101207.72;5200452;28;20518;-72
2023/08/16 09:34:20;;;;;;;3.78;1.92;;;;;;;25.90;83.18;101200.34;5203646;28;20024;-73
2023/08/16 09:36:51;;;;;;;4.40;2.13;;;;;;;26.01;82.91;101202.91;5199311;28;20091;-73
2023/08/16 09:39:25;;;;;;;5.88;2.38;;;;;;;26.18;81.63;101196.88;5203172;28;20021;-74
2023/08/16 09:41:56;;;;;;;4.70;1.98;;;;;;;26.11;81.99;101193.03;5199345;28;20022;-73
2023/08/16 09:44:29;;;;;;;4.68;2.15;;;;;;;26.26;81.94;101192.53;5202883;28;20493;-73
2023/08/16 09:47:12;;;;;;;3.72;2.15;;;;;;;26.30;80.06;101187.72;5199455;28;20077;-72
2023/08/16 09:49:44;;;;;;;8.20;2.33;;;;;;;26.17;82.19;101190.66;5201857;28;20120;-74
2023/08/16 09:52:15;;;;;;;5.22;2.38;;;;;;;26.30;81.47;101193.06;5200898;28;20104;-73
2023/08/16 09:54:50;;;;;;;4.93;2.00;;;;;;;26.69;79.93;101194.84;5201200;28;20155;-73
2023/08/16 09:57:21;;;;;;;5.63;2.75;;;;;;;26.95;78.11;101188.75;5200966;28;20021;-74
2023/08/16 09:59:53;;;;;;;5.78;2.67;;;;;;;26.40;79.07;101189.44;5198543;28;20350;-73
2023/08/16 10:02:24;;;;;;;5.13;2.40;;;;;;;26.49;80.67;101185.94;5199255;28;20033;-73
2023/08/16 10:04:55;;;;;;;8.90;2.20;;;;;;;26.74;80.11;101175.47;5198232;28;20034;-73
2023/08/16 10:07:26;;;;;;;6.30;2.80;;;;;;;26.39;79.63;101177.03;5203202;28;20030;-74
2023/08/16 10:09:57;;;;;;;7.65;2.97;;;;;;;25.95;81.20;101184.69;5204012;28;20032;-73
2023/08/16 10:12:28;;;;;;;5.95;3.03;;;;;;;25.51;84.18;101191.28;5205602;28;20026;-74
2023/08/16 10:14:58;;;;;;;3.83;2.58;;;;;;;25.43;83.43;101179.53;5202924;28;20088;-73
2023/08/16 10:17:29;;;;;;;4.27;2.60;;;;;;;25.62;84.11;101183.16;5204727;28;20028;-73
2023/08/16 10:20:04;;;;;;;5.60;2.80;;;;;;;25.63;85.29;101186.69;5202283;28;20296;-74
2023/08/16 10:22:41;;;;;;;6.20;3.00;;;;;;;25.81;82.62;101175.19;5202393;28;20025;-74
2023/08/16 10:25:16;;;;;;;7.18;3.13;;;;;;;25.74;82.91;101181.22;5205699;28;20085;-74
2023/08/16 10:27:47;;;;;;;6.68;2.88;;;;;;;25.47;85.40;101179.13;5203552;28;20036;-73
2023/08/16 10:30:22;;;;;;;4.90;2.80;;;;;;;25.73;83.98;101171.50;5202575;28;20398;-73
2023/08/16 10:33:07;;;;;;;6.88;2.70;;;;;;;25.81;85.08;101180.53;5203291;28;20029;-73
2023/08/16 10:35:39;;;;;;;5.43;2.27;;;;;;;26.24;85.09;101182.91;5205067;28;20160;-73
2023/08/16 10:38:10;;;;;;;5.15;2.78;;;;;;;26.36;84.23;101179.13;5202451;28;20021;-72
2023/08/16 10:40:40;;;;;;;6.82;2.50;;;;;;;26.77;81.63;101167.13;5203643;28;20017;-73
2023/08/16 10:43:10;;;;;;;6.17;2.60;;;;;;;26.47;82.09;101176.28;5202408;28;20036;-72
2023/08/16 10:45:47;;;;;;;4.65;2.50;;;;;;;26.60;80.81;101169.72;5204362;28;20653;-73
2023/08/16 10:48:18;;;;;;;5.07;3.05;;;;;;;26.33;82.72;101172.19;5201675;28;20025;-73
2023/08/16 10:50:56;;;;;;;5.03;2.97;;;;;;;26.25;83.73;101165.84;5201281;28;20079;-72
2023/08/16 10:53:27;;;;;;;6.78;3.00;;;;;;;26.25;85.68;101163.16;5201764;28;20051;-72
2023/08/16 10:56:03;;;;;;;7.22;3.35;;;;;;;26.04;85.63;101165.94;5200999;28;20029;-74
2023/08/16 10:58:47;;;;;;;6.03;2.83;;;;;;;25.84;86.63;101174.94;5202539;28;20025;-73
2023/08/16 11:01:20;;;;;;;5.88;3.30;;;;;;;25.63;87.23;101170.63;5203459;28;20026;-74
2023/08/16 11:03:59;;;;;;;5.78;3.17;;;;;;;25.29;90.74;101164.69;5201454;28;20120;-72
2023/08/16 11:06:31;;;;;;;7.53;2.90;;;;;;;25.85;88.55;101165.06;5201717;28;21101;-74
2023/08/16 11:09:02;;;;;;;5.50;3.20;;;;;;;25.76;88.92;101164.03;5200353;28;20433;-74
2023/08/16 11:11:34;;;;;;;4.85;3.40;;;;;;;25.61;88.37;101172.56;5199885;28;20281;-73
2023/08/16 11:14:04;;;;;;;8.07;3.40;;;;;;;25.17;91.65;101175.59;5198764;28;20358;-73
2023/08/16 11:16:35;;;;;;;5.50;3.45;;;;;;;25.19;91.23;101179.00;5199278;28;20494;-72
2023/08/16 11:19:06;;;;;;;7.70;3.80;;;;;;;25.18;93.62;101174.59;5200726;28;20072;-73
2023/08/16 11:21:37;;;;;;;5.53;3.80;;;;;;;24.87;91.86;101168.38;5202474;28;20013;-73
2023/08/16 11:24:09;;;;;;;6.15;3.55;;;;;;;24.83;92.12;101174.09;5198637;28;20944;-73
2023/08/16 11:26:39;;;;;;;8.80;3.83;;;;;;;24.89;92.66;101174.44;5196009;28;20056;-74
2023/08/16 11:29:10;;;;;;;5.05;2.92;;;;;;;24.64;92.81;101163.25;5193007;28;20037;-72
2023/08/16 11:31:40;;;;;;;6.30;3.00;;;;;;;24.91;91.31;101174.28;5196512;28;20380;-73
2023/08/16 11:34:10;;;;;;;5.10;3.10;;;;;;;25.09;89.63;101183.41;5195520;28;20029;-72
2023/08/16 11:36:41;;;;;;;6.63;2.92;;;;;;;25.02;90.81;101168.88;5197086;28;20079;-73